Time;durP1;ratioP1;P1;durP2;ratioP2;P2;SDS_P1;SDS_P2;PMS_P1;PMS_P2;Temp;Humidity;BMP_temperature;BMP_pressure;BME280_temperature;BME280_humidity;BME280_pressure;Samples;Min_cycle;Max_cycle;Signal;HPM_P1;HPM_P2
2023/12/25 00:01:54;;;;;;;16.27;2.90;;;11.20;99.00;;;;;;5103226;28;20489;-78
2023/12/25 00:04:19;;;;;;;14.85;2.25;;;11.20;99.00;;;;;;5098160;28;20733;-78
2023/12/25 00:06:45;;;;;;;12.27;1.90;;;11.10;98.90;;;;;;5100155;28;20409;-78
2023/12/25 00:09:11;;;;;;;11.77;2.30;;;11.20;98.70;;;;;;5106061;28;20727;-78
2023/12/25 00:11:36;;;;;;;16.00;2.13;;;11.20;98.50;;;;;;5100092;28;20398;-78
2023/12/25 00:14:02;;;;;;;12.00;2.20;;;11.20;98.30;;;;;;5105809;28;20401;-78
2023/12/25 00:16:27;;;;;;;13.80;2.03;;;11.20;97.60;;;;;;5090989;28;20394;-78
2023/12/25 00:18:55;;;;;;;10.60;1.60;;;11.20;97.10;;;;;;5094781;28;20424;-78
2023/12/25 00:21:20;;;;;;;10.38;2.10;;;11.20;96.60;;;;;;5099283;28;20402;-78
2023/12/25 00:23:46;;;;;;;12.67;2.07;;;11.20;96.10;;;;;;5096518;28;20764;-78
2023/12/25 00:26:11;;;;;;;10.27;1.73;;;11.20;96.00;;;;;;5097227;28;20409;-78
2023/12/25 00:28:37;;;;;;;13.47;1.90;;;11.20;96.20;;;;;;5102714;28;21027;-78
2023/12/25 00:31:03;;;;;;;11.55;2.05;;;11.20;96.40;;;;;;5098809;28;20406;-78
2023/12/25 00:33:29;;;;;;;11.75;1.90;;;11.20;96.40;;;;;;5102640;28;20396;-78
2023/12/25 00:35:54;;;;;;;13.60;2.10;;;11.20;96.70;;;;;;5097294;28;20497;-78
2023/12/25 00:38:20;;;;;;;11.38;2.20;;;11.20;96.50;;;;;;5101720;28;20416;-78
2023/12/25 00:40:45;;;;;;;13.17;2.10;;;11.20;96.40;;;;;;5096265;28;20410;-78
2023/12/25 00:43:11;;;;;;;11.98;1.92;;;11.20;96.20;;;;;;5097269;28;20393;-78
2023/12/25 00:45:37;;;;;;;11.87;1.90;;;11.20;96.10;;;;;;5101529;28;20409;-78
2023/12/25 00:48:03;;;;;;;10.97;1.87;;;11.20;95.90;;;;;;5096931;28;20477;-78
2023/12/25 00:50:28;;;;;;;14.52;2.22;;;11.20;95.80;;;;;;5098584;28;20487;-78
2023/12/25 00:52:54;;;;;;;11.07;1.95;;;11.20;95.90;;;;;;5104938;28;20894;-78
2023/12/25 00:55:20;;;;;;;13.00;2.20;;;11.20;96.10;;;;;;5102076;28;20401;-78
2023/12/25 00:57:45;;;;;;;14.20;2.45;;;11.20;96.10;;;;;;5104884;28;20512;-78
2023/12/25 01:00:12;;;;;;;16.27;2.50;;;11.10;95.90;;;;;;5100619;28;20406;-78
2023/12/25 01:02:37;;;;;;;11.88;1.80;;;11.10;96.20;;;;;;5102997;28;20397;-78
2023/12/25 01:05:03;;;;;;;10.57;1.97;;;11.10;96.00;;;;;;5089682;28;20413;-78
2023/12/25 01:07:29;;;;;;;12.02;1.83;;;11.10;96.20;;;;;;5095339;28;20497;-79
2023/12/25 01:09:55;;;;;;;13.23;2.00;;;11.10;95.80;;;;;;5096177;28;20489;-78
2023/12/25 01:12:20;;;;;;;10.10;1.83;;;11.10;95.50;;;;;;5103575;28;20407;-78
2023/12/25 01:14:46;;;;;;;6.80;1.50;;;11.20;94.30;;;;;;5099168;28;20414;-78
2023/12/25 01:17:12;;;;;;;9.27;1.20;;;11.20;92.10;;;;;;5094683;28;20914;-78
2023/12/25 01:19:38;;;;;;;9.52;1.83;;;11.20;89.40;;;;;;5100824;28;20418;-78
2023/12/25 01:22:03;;;;;;;10.10;1.50;;;11.20;86.60;;;;;;5103539;28;20410;-78
2023/12/25 01:24:29;;;;;;;7.53;1.27;;;11.30;86.80;;;;;;5090924;28;20398;-78
2023/12/25 01:26:55;;;;;;;9.05;1.70;;;11.20;85.80;;;;;;5093107;28;20818;-78
2023/12/25 01:29:20;;;;;;;7.13;0.80;;;11.20;85.30;;;;;;5100530;28;20406;-78
2023/12/25 01:31:46;;;;;;;7.47;1.02;;;11.20;75.70;;;;;;5103910;28;20407;-78
2023/12/25 01:34:11;;;;;;;8.03;1.30;;;11.20;76.30;;;;;;5100434;28;20459;-78
2023/12/25 01:36:38;;;;;;;7.45;1.42;;;11.20;74.80;;;;;;5105243;28;20404;-78
2023/12/25 01:39:04;;;;;;;10.20;1.63;;;11.10;75.50;;;;;;5101393;28;20788;-78
2023/12/25 01:41:30;;;;;;;10.30;1.80;;;11.10;74.20;;;;;;5086354;28;20410;-78
2023/12/25 01:43:55;;;;;;;10.73;1.63;;;11.10;73.80;;;;;;5096223;28;20920;-78
2023/12/25 01:46:21;;;;;;;12.50;1.70;;;11.00;76.00;;;;;;5104866;28;20432;-78
2023/12/25 01:48:50;;;;;;;10.40;1.60;;;11.00;75.60;;;;;;5100069;28;20434;-78
2023/12/25 01:51:17;;;;;;;7.73;1.67;;;11.00;75.50;;;;;;5094778;28;20516;-78
2023/12/25 01:53:43;;;;;;;8.57;1.50;;;11.00;75.40;;;;;;5100344;28;20402;-78
2023/12/25 01:56:09;;;;;;;7.90;1.30;;;11.00;73.60;;;;;;5104731;28;20490;-79
2023/12/25 01:58:35;;;;;;;9.13;1.33;;;11.00;73.50;;;;;;5100519;28;20425;-78
2023/12/25 02:01:00;;;;;;;6.57;1.27;;;11.00;69.50;;;;;;5076325;28;20400;-78
2023/12/25 02:03:26;;;;;;;11.10;1.53;;;11.00;71.00;;;;;;5090653;28;20402;-78
2023/12/25 02:05:52;;;;;;;9.20;1.50;;;11.00;68.10;;;;;;5085390;28;20921;-78
2023/12/25 02:08:18;;;;;;;9.55;1.73;;;10.90;65.50;;;;;;5097919;28;20455;-78
2023/12/25 02:10:44;;;;;;;8.35;1.05;;;10.90;69.20;;;;;;5102095;28;20427;-78
2023/12/25 02:13:10;;;;;;;9.18;1.75;;;10.90;66.40;;;;;;5098489;28;20896;-78
2023/12/25 02:15:35;;;;;;;10.07;1.83;;;10.90;64.50;;;;;;5094142;28;20400;-78
2023/12/25 02:18:02;;;;;;;12.25;1.40;;;10.90;63.40;;;;;;5098218;28;20799;-78
2023/12/25 02:20:28;;;;;;;9.88;1.75;;;10.90;65.50;;;;;;5103029;28;20420;-78
2023/12/25 02:22:54;;;;;;;7.00;1.27;;;10.90;62.10;;;;;;5099020;28;20428;-78
2023/12/25 02:25:34;;;;;;;11.45;1.63;;;10.80;61.10;;;;;;5085164;28;21070;-79
2023/12/25 02:28:00;;;;;;;13.10;1.67;;;10.80;63.80;;;;;;5099200;28;20486;-78
2023/12/25 02:30:27;;;;;;;10.75;1.83;;;10.80;62.70;;;;;;5103535;28;20950;-78
2023/12/25 02:32:52;;;;;;;9.32;1.73;;;10.70;60.10;;;;;;5096681;28;20410;-78
2023/12/25 02:35:18;;;;;;;10.63;1.77;;;10.70;59.40;;;;;;5101649;28;20407;-79
2023/12/25 02:37:44;;;;;;;11.97;2.60;;;10.70;60.50;;;;;;5076717;28;20489;-79
2023/12/25 02:40:10;;;;;;;11.52;1.73;;;10.70;63.20;;;;;;5086804;28;20406;-78
2023/12/25 02:42:35;;;;;;;10.88;2.13;;;10.70;63.20;;;;;;5088917;28;20410;-78
2023/12/25 02:45:01;;;;;;;11.53;1.70;;;10.60;64.40;;;;;;5095950;28;20417;-79
2023/12/25 02:47:26;;;;;;;14.10;1.90;;;10.60;65.10;;;;;;5096175;28;20501;-78
2023/12/25 02:49:52;;;;;;;10.37;1.67;;;10.60;64.80;;;;;;5094336;28;20821;-78
2023/12/25 02:52:18;;;;;;;10.73;1.50;;;10.60;64.70;;;;;;5094860;28;20822;-79
2023/12/25 02:54:44;;;;;;;9.70;1.52;;;10.60;63.30;;;;;;5094689;28;20402;-78
2023/12/25 02:57:09;;;;;;;12.30;1.83;;;10.60;61.50;;;;;;5090832;28;20422;-78
2023/12/25 02:59:35;;;;;;;14.50;2.10;;;10.60;62.20;;;;;;5091904;28;20428;-78
2023/12/25 03:02:01;;;;;;;11.00;1.65;;;10.50;64.50;;;;;;5093706;28;20412;-78
2023/12/25 03:04:27;;;;;;;11.77;1.95;;;10.50;61.30;;;;;;5096992;28;20404;-78
2023/12/25 03:06:52;;;;;;;12.10;2.50;;;10.50;63.10;;;;;;5074411;28;20411;-78
2023/12/25 03:09:18;;;;;;;9.77;1.60;;;10.50;61.30;;;;;;5092085;28;20410;-79
2023/12/25 03:11:45;;;;;;;11.85;2.13;;;10.50;61.10;;;;;;5095148;28;20402;-78
2023/12/25 03:14:11;;;;;;;12.75;1.50;;;10.40;61.90;;;;;;5093904;28;20741;-78
2023/12/25 03:16:36;;;;;;;11.45;1.80;;;10.50;61.60;;;;;;5093162;28;20474;-78
2023/12/25 03:19:02;;;;;;;13.70;2.07;;;10.50;62.10;;;;;;5091321;28;20947;-79
2023/12/25 03:21:28;;;;;;;16.35;2.40;;;10.50;62.40;;;;;;5094744;28;20436;-78
2023/12/25 03:23:53;;;;;;;12.98;2.30;;;10.50;64.60;;;;;;5091078;28;20410;-79
2023/12/25 03:26:19;;;;;;;15.47;2.40;;;10.40;66.50;;;;;;5088983;28;20522;-79
2023/12/25 03:28:45;;;;;;;12.98;2.53;;;10.40;68.60;;;;;;5092519;28;20401;-78
2023/12/25 03:31:11;;;;;;;13.13;2.20;;;10.40;70.60;;;;;;5088693;28;20414;-79
2023/12/25 03:33:37;;;;;;;10.90;1.77;;;10.40;72.30;;;;;;5090954;28;20394;-78
2023/12/25 03:36:04;;;;;;;18.60;2.50;;;10.40;73.00;;;;;;5088987;28;20470;-78
2023/12/25 03:38:30;;;;;;;13.40;2.17;;;10.40;73.80;;;;;;5089519;28;20433;-79
2023/12/25 03:40:56;;;;;;;14.65;2.47;;;10.40;75.10;;;;;;5088807;28;20930;-79
2023/12/25 03:43:23;;;;;;;11.98;1.90;;;10.40;76.20;;;;;;5088688;28;20432;-79
2023/12/25 03:45:49;;;;;;;13.98;2.15;;;10.30;77.50;;;;;;5089364;28;20410;-79
2023/12/25 03:48:16;;;;;;;12.70;1.80;;;10.30;79.00;;;;;;5092908;28;20409;-79
2023/12/25 03:50:42;;;;;;;12.45;1.95;;;10.30;80.30;;;;;;5095334;28;20475;-79
2023/12/25 03:53:08;;;;;;;16.87;2.40;;;10.30;80.10;;;;;;5092509;28;20837;-79
2023/12/25 03:55:36;;;;;;;15.70;2.38;;;10.40;78.70;;;;;;5092894;28;20403;-78
2023/12/25 03:58:02;;;;;;;14.05;2.38;;;10.40;79.00;;;;;;5093802;28;20425;-78
2023/12/25 04:00:28;;;;;;;12.15;1.80;;;10.40;78.90;;;;;;5096600;28;20408;-78
2023/12/25 04:02:53;;;;;;;10.33;2.10;;;10.30;79.50;;;;;;5091702;28;20765;-78
2023/12/25 04:05:19;;;;;;;12.20;1.85;;;10.30;78.20;;;;;;5092414;28;20544;-79
2023/12/25 04:07:45;;;;;;;12.85;2.03;;;10.30;77.90;;;;;;5091900;28;20905;-79
2023/12/25 04:10:11;;;;;;;13.88;1.90;;;10.30;75.40;;;;;;5095279;28;20503;-78
2023/12/25 04:12:36;;;;;;;11.00;2.10;;;10.30;74.60;;;;;;5092468;28;20904;-78
2023/12/25 04:15:05;;;;;;;13.53;2.17;;;10.30;73.30;;;;;;5096138;28;20774;-78
2023/12/25 04:17:30;;;;;;;10.48;1.75;;;10.30;71.10;;;;;;5083562;28;20406;-78
2023/12/25 04:19:56;;;;;;;9.40;1.75;;;10.30;71.50;;;;;;5093841;28;20782;-79
2023/12/25 04:22:21;;;;;;;10.67;1.77;;;10.30;70.70;;;;;;5090751;28;20463;-79
2023/12/25 04:24:47;;;;;;;12.55;1.77;;;10.30;72.00;;;;;;5077142;28;20803;-79
2023/12/25 04:27:13;;;;;;;13.15;2.10;;;10.20;71.90;;;;;;5092517;28;20398;-78
2023/12/25 04:29:38;;;;;;;15.20;2.07;;;10.20;72.50;;;;;;5095659;28;20415;-78
2023/12/25 04:32:05;;;;;;;14.07;2.00;;;10.20;71.50;;;;;;5091797;28;20409;-78
2023/12/25 04:34:30;;;;;;;13.15;1.85;;;10.20;72.40;;;;;;5090553;28;20409;-79
2023/12/25 04:36:56;;;;;;;12.87;1.90;;;10.20;72.20;;;;;;5091081;28;20462;-78
2023/12/25 04:39:21;;;;;;;10.50;1.50;;;10.20;71.60;;;;;;5090894;28;20503;-78
2023/12/25 04:41:47;;;;;;;13.52;2.45;;;10.20;71.40;;;;;;5090114;28;20965;-78
2023/12/25 04:44:13;;;;;;;11.57;2.50;;;10.20;71.10;;;;;;5091031;28;20398;-78
2023/12/25 04:46:39;;;;;;;11.07;2.42;;;10.20;70.90;;;;;;5088432;28;20412;-79
2023/12/25 04:49:06;;;;;;;12.50;1.65;;;10.20;70.60;;;;;;5093689;28;20412;-78
2023/12/25 04:51:31;;;;;;;13.13;1.95;;;10.20;70.70;;;;;;5088122;28;20413;-79
2023/12/25 04:53:57;;;;;;;13.47;2.17;;;10.20;70.40;;;;;;5091290;28;20394;-78
2023/12/25 04:56:22;;;;;;;11.68;1.75;;;10.20;71.00;;;;;;5089952;28;20922;-79
2023/12/25 04:58:48;;;;;;;14.27;2.20;;;10.30;70.80;;;;;;5091065;28;20433;-78
2023/12/25 05:01:14;;;;;;;12.68;1.70;;;10.20;71.80;;;;;;5076692;28;20920;-78
2023/12/25 05:03:40;;;;;;;10.68;2.05;;;10.20;73.70;;;;;;5091780;28;20806;-79
2023/12/25 05:06:06;;;;;;;14.73;2.70;;;10.20;75.00;;;;;;5089668;28;20448;-79
2023/12/25 05:08:31;;;;;;;11.57;1.77;;;10.20;76.60;;;;;;5091264;28;20455;-79
2023/12/25 05:10:57;;;;;;;15.07;1.97;;;10.20;77.10;;;;;;5089578;28;20658;-78
2023/12/25 05:13:22;;;;;;;13.98;2.70;;;10.20;76.90;;;;;;5091964;28;20935;-79
2023/12/25 05:15:48;;;;;;;12.00;2.27;;;10.20;77.50;;;;;;5089783;28;20467;-78
2023/12/25 05:18:14;;;;;;;11.68;2.25;;;10.20;77.80;;;;;;5091726;28;20818;-79
2023/12/25 05:20:40;;;;;;;12.82;1.85;;;10.10;78.50;;;;;;5089829;28;20767;-78
2023/12/25 05:23:05;;;;;;;14.93;2.13;;;10.10;79.10;;;;;;5091687;28;20405;-78
2023/12/25 05:25:31;;;;;;;15.20;2.20;;;10.10;79.60;;;;;;5089707;28;20406;-78
2023/12/25 05:27:57;;;;;;;12.45;1.95;;;10.10;80.60;;;;;;5090610;28;20879;-79
2023/12/25 05:30:23;;;;;;;9.93;1.80;;;10.10;81.00;;;;;;5088682;28;20488;-79
2023/12/25 05:32:48;;;;;;;12.02;1.92;;;10.10;81.70;;;;;;5090376;28;20952;-78
2023/12/25 05:35:14;;;;;;;15.10;2.20;;;10.00;82.20;;;;;;5089185;28;20405;-78
2023/12/25 05:37:40;;;;;;;10.93;1.77;;;10.10;82.70;;;;;;5089983;28;21129;-78
2023/12/25 05:40:06;;;;;;;12.27;2.07;;;10.10;82.40;;;;;;5088886;28;20479;-78
2023/12/25 05:42:32;;;;;;;11.13;1.75;;;10.10;81.90;;;;;;5090434;28;20437;-78
2023/12/25 05:44:57;;;;;;;10.45;1.63;;;10.10;81.60;;;;;;5082440;28;20793;-78
2023/12/25 05:47:23;;;;;;;12.90;1.88;;;10.10;81.80;;;;;;5086098;28;20401;-79
2023/12/25 05:49:49;;;;;;;10.53;1.60;;;10.00;81.60;;;;;;5090695;28;20398;-79
2023/12/25 05:52:14;;;;;;;11.68;2.03;;;10.00;81.50;;;;;;5091791;28;20493;-79
2023/12/25 05:54:41;;;;;;;16.08;2.03;;;10.00;81.50;;;;;;5090759;28;20402;-78
2023/12/25 05:57:06;;;;;;;13.88;2.22;;;10.00;81.80;;;;;;5087365;28;20402;-79
2023/12/25 05:59:32;;;;;;;13.40;2.10;;;9.90;82.60;;;;;;5088581;28;20433;-79
2023/12/25 06:01:57;;;;;;;13.80;2.60;;;9.90;82.70;;;;;;5091133;28;20518;-79
2023/12/25 06:04:23;;;;;;;15.27;2.55;;;9.90;83.20;;;;;;5089557;28;20465;-78
2023/12/25 06:06:50;;;;;;;14.10;2.37;;;9.90;83.70;;;;;;5090126;28;20401;-78
2023/12/25 06:09:15;;;;;;;14.05;2.78;;;9.90;83.60;;;;;;5090412;28;20892;-78
2023/12/25 06:11:41;;;;;;;13.13;2.60;;;9.90;83.20;;;;;;5091278;28;20443;-78
2023/12/25 06:14:08;;;;;;;14.00;2.08;;;9.90;83.10;;;;;;5090567;28;20654;-78
2023/12/25 06:16:34;;;;;;;12.75;2.05;;;9.90;81.90;;;;;;5093100;28;20437;-78
2023/12/25 06:19:00;;;;;;;12.27;2.10;;;9.90;81.50;;;;;;5095155;28;20482;-78
2023/12/25 06:21:26;;;;;;;12.73;1.97;;;9.90;81.40;;;;;;5096594;28;20414;-78
2023/12/25 06:23:52;;;;;;;11.93;1.90;;;9.90;81.50;;;;;;5094476;28;20786;-79
2023/12/25 06:26:18;;;;;;;12.73;2.10;;;9.90;80.40;;;;;;5096890;28;20397;-79
2023/12/25 06:28:43;;;;;;;15.13;2.30;;;9.80;80.30;;;;;;5093713;28;20418;-78
2023/12/25 06:31:09;;;;;;;12.77;2.17;;;9.80;79.90;;;;;;5093062;28;20895;-79
2023/12/25 06:33:35;;;;;;;12.07;1.98;;;9.80;78.40;;;;;;5093280;28;20413;-78
2023/12/25 06:36:01;;;;;;;10.90;1.80;;;9.80;79.70;;;;;;5094769;28;20439;-78
2023/12/25 06:38:26;;;;;;;9.88;2.03;;;9.80;78.40;;;;;;5094231;28;20429;-79
2023/12/25 06:40:52;;;;;;;15.30;2.50;;;9.70;77.80;;;;;;5096759;28;20467;-78
2023/12/25 06:43:18;;;;;;;11.70;2.05;;;9.70;77.90;;;;;;5094564;28;20753;-78
2023/12/25 06:45:44;;;;;;;11.33;1.70;;;9.70;78.00;;;;;;5091745;28;20416;-78
2023/12/25 06:48:10;;;;;;;14.32;2.22;;;9.70;79.40;;;;;;5092908;28;20544;-78
2023/12/25 06:50:38;;;;;;;12.77;2.03;;;9.70;78.90;;;;;;5092132;28;20501;-79
2023/12/25 06:53:04;;;;;;;12.55;1.77;;;9.60;79.70;;;;;;5090451;27;20811;-79
2023/12/25 06:55:30;;;;;;;12.47;2.30;;;9.60;80.40;;;;;;5095511;28;20853;-79
2023/12/25 06:57:55;;;;;;;14.47;2.53;;;9.60;81.40;;;;;;5093526;28;20493;-79
2023/12/25 07:00:21;;;;;;;14.73;1.98;;;9.60;81.60;;;;;;5094932;28;20487;-78
2023/12/25 07:02:47;;;;;;;12.85;2.38;;;9.60;82.10;;;;;;5092240;28;20504;-79
2023/12/25 07:05:12;;;;;;;17.50;3.03;;;9.50;82.70;;;;;;5096722;28;20416;-78
2023/12/25 07:07:38;;;;;;;13.83;2.13;;;9.50;83.20;;;;;;5092948;28;20406;-79
2023/12/25 07:10:04;;;;;;;12.50;2.25;;;9.50;84.00;;;;;;5095191;28;21508;-78
2023/12/25 07:12:30;;;;;;;14.88;2.75;;;9.40;84.40;;;;;;5092050;28;20459;-78
2023/12/25 07:14:55;;;;;;;14.37;2.43;;;9.40;85.60;;;;;;5077501;28;20416;-78
2023/12/25 07:17:21;;;;;;;11.77;2.10;;;9.40;86.40;;;;;;5092123;28;20401;-78
2023/12/25 07:19:47;;;;;;;12.95;2.20;;;9.30;87.30;;;;;;5094591;28;20443;-79
2023/12/25 07:22:13;;;;;;;15.85;2.53;;;9.30;88.30;;;;;;5091800;28;20768;-79
2023/12/25 07:24:38;;;;;;;13.60;2.73;;;9.40;89.30;;;;;;5096375;28;20546;-79
2023/12/25 07:27:05;;;;;;;15.52;2.67;;;9.40;90.50;;;;;;5083461;28;20398;-78
2023/12/25 07:29:30;;;;;;;14.18;2.08;;;9.40;91.30;;;;;;5095099;28;20400;-78
2023/12/25 07:31:57;;;;;;;15.95;2.88;;;9.50;91.30;;;;;;5092568;28;20421;-78
2023/12/25 07:34:22;;;;;;;16.92;2.92;;;9.60;91.50;;;;;;5094879;28;20401;-79
2023/12/25 07:36:48;;;;;;;13.32;2.03;;;9.60;91.10;;;;;;5064783;28;20463;-79
2023/12/25 07:39:14;;;;;;;13.47;1.93;;;9.60;90.80;;;;;;5096170;28;20435;-79
2023/12/25 07:41:42;;;;;;;7.07;1.10;;;9.60;90.40;;;;;;5091541;28;20480;-78
2023/12/25 07:44:08;;;;;;;8.97;1.10;;;9.50;87.30;;;;;;5095148;28;20838;-79
2023/12/25 07:46:33;;;;;;;5.87;1.00;;;9.40;84.60;;;;;;5071862;28;20489;-79
2023/12/25 07:48:59;;;;;;;7.00;0.80;;;9.40;82.20;;;;;;5094258;28;21561;-79
2023/12/25 07:51:26;;;;;;;6.88;0.90;;;9.30;81.60;;;;;;5091509;28;20418;-79
2023/12/25 07:53:52;;;;;;;4.57;0.50;;;9.20;80.20;;;;;;5094981;28;20398;-79
2023/12/25 07:56:17;;;;;;;4.47;0.90;;;9.20;80.00;;;;;;5089775;28;20830;-79
2023/12/25 07:58:43;;;;;;;5.85;0.73;;;9.10;79.50;;;;;;5094986;28;20775;-79
2023/12/25 08:01:10;;;;;;;12.27;1.10;;;9.10;79.70;;;;;;5093517;28;20435;-78
2023/12/25 08:03:36;;;;;;;7.47;1.10;;;9.10;80.20;;;;;;5095694;28;20412;-78
2023/12/25 08:06:02;;;;;;;5.77;0.90;;;9.10;81.50;;;;;;5092569;28;20424;-79
2023/12/25 08:08:28;;;;;;;7.03;0.80;;;9.00;82.00;;;;;;5095388;28;20405;-79
2023/12/25 08:10:53;;;;;;;8.50;0.90;;;9.10;82.60;;;;;;5092971;28;20398;-79
2023/12/25 08:13:19;;;;;;;5.25;0.60;;;9.00;83.10;;;;;;5095041;28;20388;-79
2023/12/25 08:15:45;;;;;;;5.97;0.70;;;9.10;83.20;;;;;;5092574;28;20410;-79
2023/12/25 08:18:10;;;;;;;7.22;0.90;;;9.10;82.50;;;;;;5095660;28;20419;-78
2023/12/25 08:20:36;;;;;;;5.82;0.80;;;9.10;82.20;;;;;;5092705;28;20394;-78
2023/12/25 08:23:02;;;;;;;5.73;0.97;;;9.00;81.30;;;;;;5095793;28;20929;-78
2023/12/25 08:25:28;;;;;;;5.07;0.80;;;9.00;81.20;;;;;;5092565;28;20408;-78
2023/12/25 08:27:54;;;;;;;7.77;0.60;;;9.00;80.40;;;;;;5087346;28;20503;-79
2023/12/25 08:30:21;;;;;;;7.43;0.88;;;9.00;80.00;;;;;;5080299;28;20980;-78
2023/12/25 08:32:46;;;;;;;10.25;0.80;;;9.00;78.20;;;;;;5082534;28;20461;-79
2023/12/25 08:35:12;;;;;;;6.90;1.87;;;9.00;78.30;;;;;;5087781;28;20414;-79
2023/12/25 08:37:39;;;;;;;6.30;1.17;;;9.00;78.20;;;;;;5088803;28;20402;-77
2023/12/25 08:40:06;;;;;;;8.60;1.30;;;9.00;77.50;;;;;;5075893;28;21010;-78
2023/12/25 08:42:32;;;;;;;7.80;1.20;;;9.00;77.30;;;;;;5073510;28;20408;-78
2023/12/25 08:44:58;;;;;;;9.38;1.50;;;9.00;76.50;;;;;;5081133;28;20399;-78
2023/12/25 08:47:24;;;;;;;10.50;1.43;;;9.00;74.50;;;;;;5076679;28;20963;-78
2023/12/25 08:49:50;;;;;;;11.27;1.52;;;9.00;75.20;;;;;;5083062;28;20433;-78
2023/12/25 08:52:17;;;;;;;10.07;1.33;;;9.10;75.20;;;;;;5081560;28;20419;-79
2023/12/25 08:54:46;;;;;;;11.13;1.50;;;9.10;74.80;;;;;;5070635;28;20971;-78
2023/12/25 08:57:11;;;;;;;11.88;1.60;;;9.10;74.60;;;;;;5079593;28;21017;-79
2023/12/25 08:59:37;;;;;;;11.90;1.50;;;9.10;75.30;;;;;;5082173;28;20443;-78
2023/12/25 09:02:03;;;;;;;10.20;1.50;;;9.10;75.50;;;;;;5086955;28;20481;-78
2023/12/25 09:04:28;;;;;;;10.15;1.27;;;9.10;76.20;;;;;;5088041;28;20415;-78
2023/12/25 09:06:54;;;;;;;12.53;1.80;;;9.10;75.60;;;;;;5078398;28;20402;-79
2023/12/25 09:09:19;;;;;;;8.55;1.70;;;9.20;74.80;;;;;;5085928;28;20442;-78
2023/12/25 09:11:47;;;;;;;10.87;1.50;;;9.10;74.60;;;;;;5071732;28;20422;-79
2023/12/25 09:14:13;;;;;;;11.13;2.30;;;9.10;74.40;;;;;;5084171;28;20410;-78
2023/12/25 09:16:38;;;;;;;10.30;1.37;;;9.10;75.20;;;;;;5089821;28;20473;-78
2023/12/25 09:19:04;;;;;;;11.27;1.90;;;9.10;75.50;;;;;;5075212;28;20531;-78
2023/12/25 09:21:36;;;;;;;10.48;1.73;;;9.10;75.00;;;;;;5084460;28;20412;-78
2023/12/25 09:24:02;;;;;;;11.93;1.92;;;9.10;75.60;;;;;;5087186;28;20444;-78
2023/12/25 09:26:28;;;;;;;9.82;1.60;;;9.10;75.00;;;;;;5100576;28;20400;-78
2023/12/25 09:28:53;;;;;;;9.60;1.60;;;9.10;75.70;;;;;;5091752;28;20542;-78
2023/12/25 09:31:19;;;;;;;9.60;1.45;;;9.10;76.40;;;;;;5093284;28;20414;-79
2023/12/25 09:33:45;;;;;;;14.73;2.50;;;9.10;77.10;;;;;;5080653;28;20427;-79
2023/12/25 09:36:11;;;;;;;11.03;1.60;;;9.10;76.70;;;;;;5101071;28;20397;-79
2023/12/25 09:38:36;;;;;;;11.00;1.90;;;9.10;77.10;;;;;;5102805;28;20420;-79
2023/12/25 09:41:05;;;;;;;11.95;1.48;;;9.20;77.00;;;;;;5094278;28;20828;-79
2023/12/25 09:43:31;;;;;;;8.48;1.25;;;9.20;77.60;;;;;;5085486;28;20457;-79
2023/12/25 09:45:58;;;;;;;11.98;2.00;;;9.20;77.60;;;;;;5090634;28;20413;-79
2023/12/25 09:48:23;;;;;;;11.10;1.85;;;9.20;76.60;;;;;;5083274;28;20395;-79
2023/12/25 09:50:49;;;;;;;12.13;1.37;;;9.20;74.70;;;;;;5086052;28;20433;-79
2023/12/25 09:53:14;;;;;;;9.73;1.37;;;9.30;72.50;;;;;;5101221;28;20400;-79
2023/12/25 09:55:40;;;;;;;11.32;1.90;;;9.20;71.30;;;;;;5110019;28;20404;-80
2023/12/25 09:58:10;;;;;;;11.90;2.10;;;9.20;72.00;;;;;;5111200;28;20399;-79
2023/12/25 10:00:36;;;;;;;11.57;1.98;;;9.20;73.60;;;;;;5107300;28;20469;-79
2023/12/25 10:03:03;;;;;;;11.13;1.73;;;9.20;73.90;;;;;;5111006;28;20447;-80
2023/12/25 10:05:29;;;;;;;13.73;1.98;;;9.20;74.30;;;;;;5107773;28;20479;-79
2023/12/25 10:07:55;;;;;;;12.27;1.88;;;9.20;74.00;;;;;;5102386;28;20407;-79
2023/12/25 10:10:30;;;;;;;10.63;1.70;;;9.20;74.30;;;;;;5107271;28;20434;-79
2023/12/25 10:12:58;;;;;;;14.88;2.35;;;9.30;75.30;;;;;;5103488;28;20416;-79
2023/12/25 10:15:24;;;;;;;13.55;2.13;;;9.30;75.70;;;;;;5096619;28;20414;-80
2023/12/25 10:18:06;;;;;;;9.65;1.70;;;9.40;76.50;;;;;;5096561;28;21004;-80
2023/12/25 10:20:32;;;;;;;12.57;2.13;;;9.50;74.50;;;;;;5090103;28;20524;-79
2023/12/25 10:22:58;;;;;;;13.05;1.88;;;9.60;75.00;;;;;;5091643;28;20481;-80
2023/12/25 10:25:29;;;;;;;11.82;2.10;;;9.60;73.80;;;;;;5090682;28;20451;-80
2023/12/25 10:27:55;;;;;;;10.32;1.80;;;9.70;71.40;;;;;;5091375;28;20422;-80
2023/12/25 10:30:27;;;;;;;12.48;2.13;;;9.60;69.70;;;;;;5074276;28;20417;-80
2023/12/25 10:33:10;;;;;;;10.43;1.70;;;9.60;69.90;;;;;;5089335;28;20428;-80
2023/12/25 10:35:36;;;;;;;11.68;1.50;;;9.60;70.40;;;;;;5089440;28;20815;-79
2023/12/25 10:38:06;;;;;;;10.95;1.75;;;9.60;70.70;;;;;;5107184;28;20396;-80
2023/12/25 10:40:32;;;;;;;12.32;1.92;;;9.60;72.10;;;;;;5098603;28;21322;-79
2023/12/25 10:42:59;;;;;;;12.10;1.98;;;9.60;72.20;;;;;;5108965;28;20400;-79
2023/12/25 10:45:26;;;;;;;9.32;1.65;;;9.60;71.70;;;;;;5107098;28;20420;-79
2023/12/25 10:48:03;;;;;;;12.10;1.58;;;9.60;72.10;;;;;;5082708;28;21020;-79
2023/12/25 10:50:34;;;;;;;12.63;1.90;;;9.60;72.90;;;;;;5097582;28;20921;-79
2023/12/25 10:53:03;;;;;;;11.35;2.22;;;9.70;71.90;;;;;;5109511;28;20985;-79
2023/12/25 10:55:40;;;;;;;10.43;1.77;;;9.70;71.00;;;;;;5097260;27;20426;-79
2023/12/25 10:58:08;;;;;;;13.23;2.13;;;9.70;69.90;;;;;;5109546;28;20503;-79
2023/12/25 11:00:42;;;;;;;11.07;2.30;;;9.70;70.00;;;;;;5104331;28;20888;-81
2023/12/25 11:03:12;;;;;;;13.52;1.80;;;9.70;70.60;;;;;;5090364;28;20420;-79
2023/12/25 11:05:39;;;;;;;15.88;2.42;;;9.70;72.00;;;;;;5106564;28;20411;-80
2023/12/25 11:08:05;;;;;;;13.90;1.90;;;9.80;72.20;;;;;;5101261;28;20910;-80
2023/12/25 11:10:31;;;;;;;10.80;2.08;;;9.80;71.30;;;;;;5093612;28;20420;-79
2023/12/25 11:12:57;;;;;;;13.53;2.40;;;9.90;72.10;;;;;;5097394;28;20420;-79
2023/12/25 11:15:24;;;;;;;16.17;2.30;;;9.90;70.50;;;;;;5095871;28;20423;-79
2023/12/25 11:17:50;;;;;;;13.65;2.25;;;9.90;69.80;;;;;;5108008;28;20419;-78
2023/12/25 11:20:16;;;;;;;12.65;2.40;;;9.90;70.70;;;;;;5105147;28;20427;-79
2023/12/25 11:22:44;;;;;;;13.82;2.22;;;9.90;70.10;;;;;;5106445;28;20404;-79
2023/12/25 11:25:13;;;;;;;15.35;2.30;;;9.90;69.80;;;;;;5094463;28;20401;-79
2023/12/25 11:27:40;;;;;;;13.90;2.10;;;9.90;70.10;;;;;;5106394;28;20451;-79
2023/12/25 11:30:11;;;;;;;14.77;2.22;;;9.90;70.50;;;;;;5101648;28;20396;-79
2023/12/25 11:32:40;;;;;;;12.35;2.13;;;9.90;71.70;;;;;;5104372;28;20396;-79
2023/12/25 11:35:08;;;;;;;18.45;2.75;;;9.90;70.60;;;;;;5099336;28;20759;-78
2023/12/25 11:37:34;;;;;;;9.90;1.83;;;9.90;69.90;;;;;;5099895;28;20404;-79
2023/12/25 11:40:05;;;;;;;14.15;2.33;;;9.90;71.00;;;;;;5104634;28;20439;-78
2023/12/25 11:42:35;;;;;;;14.30;2.38;;;9.90;70.30;;;;;;5102940;28;20418;-79
2023/12/25 11:45:11;;;;;;;17.40;2.70;;;9.90;70.80;;;;;;5099345;28;20900;-78
2023/12/25 11:47:44;;;;;;;15.60;2.63;;;9.90;68.80;;;;;;5092929;28;20408;-79
2023/12/25 11:50:14;;;;;;;11.65;2.28;;;9.80;69.50;;;;;;5093297;28;20473;-78
2023/12/25 11:52:43;;;;;;;10.27;2.28;;;9.90;70.50;;;;;;5107114;28;20408;-78
2023/12/25 11:55:20;;;;;;;12.45;2.47;;;9.80;71.40;;;;;;5107775;28;20427;-79
2023/12/25 11:57:46;;;;;;;11.60;1.98;;;9.80;70.70;;;;;;5095385;28;20411;-78
2023/12/25 12:00:23;;;;;;;15.55;2.40;;;9.80;72.80;;;;;;5094881;28;20430;-78
2023/12/25 12:02:49;;;;;;;14.55;1.98;;;9.80;71.90;;;;;;5094128;28;20406;-78
2023/12/25 12:05:15;;;;;;;12.32;2.15;;;9.80;73.40;;;;;;5083729;28;20412;-78
2023/12/25 12:07:42;;;;;;;15.90;2.10;;;9.80;73.50;;;;;;5099283;28;20402;-79
2023/12/25 12:10:09;;;;;;;14.02;1.98;;;9.80;74.10;;;;;;5100394;28;20428;-78
2023/12/25 12:12:35;;;;;;;10.07;1.67;;;9.70;73.70;;;;;;5106874;27;20449;-78
2023/12/25 12:15:01;;;;;;;10.02;1.92;;;9.70;74.20;;;;;;5102641;28;20402;-79
2023/12/25 12:17:27;;;;;;;10.15;1.90;;;9.70;74.60;;;;;;5106403;28;20453;-78
2023/12/25 12:19:53;;;;;;;10.23;1.87;;;9.70;75.10;;;;;;5101903;28;20858;-79
2023/12/25 12:22:19;;;;;;;11.30;1.92;;;9.70;75.80;;;;;;5104494;28;20419;-78
2023/12/25 12:24:45;;;;;;;12.95;2.40;;;9.70;76.20;;;;;;5101268;28;20433;-78
2023/12/25 12:27:11;;;;;;;14.35;1.83;;;9.80;77.00;;;;;;5097972;28;20455;-78
2023/12/25 12:29:40;;;;;;;10.53;1.73;;;9.80;77.50;;;;;;5098099;28;20768;-78
2023/12/25 12:32:07;;;;;;;13.87;2.07;;;9.80;78.40;;;;;;5085259;28;20432;-78
2023/12/25 12:34:32;;;;;;;11.70;1.80;;;9.80;79.40;;;;;;5101855;28;20445;-78
2023/12/25 12:37:05;;;;;;;11.90;1.77;;;9.80;80.10;;;;;;5104360;28;20436;-79
2023/12/25 12:39:32;;;;;;;12.73;1.92;;;9.80;81.00;;;;;;5100861;28;20436;-78